Time;durP1;ratioP1;P1;durP2;ratioP2;P2;SDS_P1;SDS_P2;PMS_P1;PMS_P2;Temp;Humidity;BMP_temperature;BMP_pressure;BME280_temperature;BME280_humidity;BME280_pressure;Samples;Min_cycle;Max_cycle;Signal;HPM_P1;HPM_P2
2022/10/21 00:01:48;;;;;;;;;;;20.70;52.50;;;;;;8364863;28;19956;-43
2022/10/21 00:05:49;;;;;;;;;;;20.70;52.50;;;;;;8364047;28;20439;-43
2022/10/21 00:09:49;;;;;;;;;;;20.70;52.40;;;;;;8364302;28;19936;-44
2022/10/21 00:13:49;;;;;;;;;;;20.70;52.50;;;;;;8364301;28;19975;-44
2022/10/21 00:17:50;;;;;;;;;;;20.70;52.50;;;;;;8363862;28;20441;-46
2022/10/21 00:21:50;;;;;;;;;;;20.70;52.50;;;;;;8364267;28;19913;-45
2022/10/21 00:25:54;;;;;;;;;;;20.70;52.50;;;;;;8364131;28;20278;-44
2022/10/21 00:29:55;;;;;;;;;;;20.70;52.50;;;;;;8362993;28;19921;-44
2022/10/21 00:33:55;;;;;;;;;;;20.70;52.50;;;;;;8363706;28;19928;-44
2022/10/21 00:37:56;;;;;;;;;;;20.70;52.50;;;;;;8363892;28;19920;-44
2022/10/21 00:41:56;;;;;;;;;;;20.70;52.50;;;;;;8363296;28;20374;-44
2022/10/21 00:45:59;;;;;;;;;;;20.60;52.50;;;;;;8363500;28;19920;-44
2022/10/21 00:50:01;;;;;;;;;;;20.70;52.60;;;;;;8363300;28;19931;-44
2022/10/21 00:54:02;;;;;;;;;;;20.60;52.50;;;;;;8362954;28;19917;-44
2022/10/21 00:58:03;;;;;;;;;;;20.70;52.60;;;;;;8363719;28;20331;-45
2022/10/21 01:02:03;;;;;;;;;;;20.70;52.60;;;;;;8363466;28;19921;-44
2022/10/21 01:06:06;;;;;;;;;;;20.60;52.60;;;;;;8361838;28;19925;-46
2022/10/21 01:10:07;;;;;;;;;;;20.60;52.60;;;;;;8363194;28;19924;-45
2022/10/21 01:14:27;;;;;;;;;;;20.60;52.60;;;;;;8363067;28;19913;-43
2022/10/21 01:18:51;;;;;;;;;;;20.60;52.60;;;;;;8362600;28;19917;-44
2022/10/21 01:23:10;;;;;;;;;;;20.60;52.60;;;;;;8363212;28;20328;-44
2022/10/21 01:27:13;;;;;;;;;;;20.70;52.60;;;;;;8362742;28;19924;-44
2022/10/21 01:31:40;;;;;;;;;;;20.60;52.60;;;;;;8362816;28;20408;-43
2022/10/21 01:35:59;;;;;;;;;;;20.60;52.60;;;;;;8361477;28;19923;-44
2022/10/21 01:40:04;;;;;;;;;;;20.60;52.60;;;;;;8362248;28;19923;-45
2022/10/21 01:44:24;;;;;;;;;;;20.60;52.60;;;;;;8368347;28;19913;-45
2022/10/21 01:48:27;;;;;;;;;;;20.60;52.60;;;;;;8368443;28;20293;-44
2022/10/21 01:52:29;;;;;;;;;;;20.60;52.60;;;;;;8369191;28;20034;-44
2022/10/21 01:56:30;;;;;;;;;;;20.60;52.60;;;;;;8368803;28;20015;-45
2022/10/21 02:00:31;;;;;;;;;;;20.70;52.70;;;;;;8368180;28;19920;-45
2022/10/21 02:04:33;;;;;;;;;;;20.60;52.60;;;;;;8368286;28;19924;-45
2022/10/21 02:08:33;;;;;;;;;;;20.60;52.60;;;;;;8368263;28;19930;-46
2022/10/21 02:12:35;;;;;;;;;;;20.60;52.70;;;;;;8368078;28;19917;-45
2022/10/21 02:16:37;;;;;;;;;;;20.60;52.60;;;;;;8368139;28;19917;-44
2022/10/21 02:20:40;;;;;;;;;;;20.60;52.70;;;;;;8368393;28;19924;-45
2022/10/21 02:24:45;;;;;;;;;;;20.60;52.70;;;;;;8367247;28;20012;-45
2022/10/21 02:28:45;;;;;;;;;;;20.60;52.70;;;;;;8367549;28;19920;-45
2022/10/21 02:32:49;;;;;;;;;;;20.60;53.10;;;;;;8367869;28;19923;-44
2022/10/21 02:37:06;;;;;;;;;;;20.60;53.40;;;;;;8367347;28;19924;-46
2022/10/21 02:41:08;;;;;;;;;;;20.50;53.40;;;;;;8367320;28;19917;-44
2022/10/21 02:45:09;;;;;;;;;;;20.50;53.50;;;;;;8366912;28;20251;-44
2022/10/21 02:49:10;;;;;;;;;;;20.50;54.20;;;;;;8367286;28;19966;-44
2022/10/21 02:53:12;;;;;;;;;;;20.50;53.80;;;;;;8366666;28;19916;-45
2022/10/21 02:57:12;;;;;;;;;;;20.50;53.70;;;;;;8366740;28;20009;-45
2022/10/21 03:01:12;;;;;;;;;;;20.50;53.60;;;;;;8367002;28;19916;-45
2022/10/21 03:05:13;;;;;;;;;;;20.50;53.80;;;;;;8366545;28;19920;-44
2022/10/21 03:09:13;;;;;;;;;;;20.50;53.80;;;;;;8365999;28;19929;-44
2022/10/21 03:13:14;;;;;;;;;;;20.50;53.70;;;;;;8366363;28;19913;-45
2022/10/21 03:17:14;;;;;;;;;;;20.50;53.70;;;;;;8366382;28;19913;-44
2022/10/21 03:21:15;;;;;;;;;;;20.50;53.40;;;;;;8365706;28;19970;-46
2022/10/21 03:25:15;;;;;;;;;;;20.50;53.50;;;;;;8366188;28;19924;-45
2022/10/21 03:29:16;;;;;;;;;;;20.50;53.30;;;;;;8365711;28;19931;-46
2022/10/21 03:33:16;;;;;;;;;;;20.50;53.40;;;;;;8365336;28;20007;-44
2022/10/21 03:37:17;;;;;;;;;;;20.50;53.50;;;;;;8365682;28;19975;-45
2022/10/21 03:41:17;;;;;;;;;;;20.50;53.30;;;;;;8365363;28;20420;-46
2022/10/21 03:45:18;;;;;;;;;;;20.50;53.30;;;;;;8364808;28;19917;-45
2022/10/21 03:49:18;;;;;;;;;;;20.50;53.30;;;;;;8365127;28;19928;-46
2022/10/21 03:53:18;;;;;;;;;;;20.50;53.40;;;;;;8365341;28;19944;-45
2022/10/21 03:57:19;;;;;;;;;;;20.50;53.40;;;;;;8364540;28;19917;-45
2022/10/21 04:01:19;;;;;;;;;;;20.50;53.40;;;;;;8364743;28;19924;-46
2022/10/21 04:05:20;;;;;;;;;;;20.50;53.40;;;;;;8360081;28;19920;-45
2022/10/21 04:09:20;;;;;;;;;;;20.50;53.50;;;;;;8364004;28;19928;-45
2022/10/21 04:13:21;;;;;;;;;;;20.50;53.60;;;;;;8364953;28;20321;-44
2022/10/21 04:17:21;;;;;;;;;;;20.50;53.70;;;;;;8364477;28;19921;-45
2022/10/21 04:21:22;;;;;;;;;;;20.50;53.90;;;;;;8363743;28;19917;-45
2022/10/21 04:25:22;;;;;;;;;;;20.50;53.60;;;;;;8364065;28;19923;-44
2022/10/21 04:29:23;;;;;;;;;;;20.50;53.60;;;;;;8363952;28;19944;-45
2022/10/21 04:33:23;;;;;;;;;;;20.50;54.00;;;;;;8363738;28;19923;-44
2022/10/21 04:37:24;;;;;;;;;;;20.40;53.70;;;;;;8363908;28;19956;-44
2022/10/21 04:41:24;;;;;;;;;;;20.50;54.10;;;;;;8363705;28;20289;-44
2022/10/21 04:45:25;;;;;;;;;;;20.40;54.10;;;;;;8363191;28;20000;-45
2022/10/21 04:49:25;;;;;;;;;;;20.50;54.00;;;;;;8363380;28;19925;-44
2022/10/21 04:53:25;;;;;;;;;;;20.50;53.90;;;;;;8363614;28;20011;-45
2022/10/21 04:57:26;;;;;;;;;;;20.40;54.20;;;;;;8362962;28;20310;-44
2022/10/21 05:01:26;;;;;;;;;;;20.40;54.00;;;;;;8363522;28;20340;-46
2022/10/21 05:05:27;;;;;;;;;;;20.40;54.00;;;;;;8363087;28;19928;-44
2022/10/21 05:09:27;;;;;;;;;;;20.40;53.90;;;;;;8362667;28;19978;-44
2022/10/21 05:13:28;;;;;;;;;;;20.40;53.80;;;;;;8363286;28;20385;-44
2022/10/21 05:17:29;;;;;;;;;;;20.40;53.70;;;;;;8366211;28;19943;-44
2022/10/21 05:21:29;;;;;;;;;;;20.40;53.60;;;;;;8369385;28;19956;-45
2022/10/21 05:25:30;;;;;;;;;;;20.40;53.50;;;;;;8369891;28;19947;-46
2022/10/21 05:29:30;;;;;;;;;;;20.40;53.60;;;;;;8369522;28;19928;-44
2022/10/21 05:33:30;;;;;;;;;;;20.40;53.60;;;;;;8369370;28;19920;-45
2022/10/21 05:37:31;;;;;;;;;;;20.40;54.20;;;;;;8369287;28;19944;-45
2022/10/21 05:41:31;;;;;;;;;;;20.40;53.60;;;;;;8369109;28;19917;-45
2022/10/21 05:45:32;;;;;;;;;;;20.40;53.80;;;;;;8368574;28;19917;-44
2022/10/21 05:49:32;;;;;;;;;;;20.40;53.80;;;;;;8369052;28;19924;-45
2022/10/21 05:53:33;;;;;;;;;;;20.40;53.70;;;;;;8369183;28;19913;-45
2022/10/21 05:57:34;;;;;;;;;;;20.40;53.70;;;;;;8368289;28;19917;-44
2022/10/21 06:01:34;;;;;;;;;;;20.40;53.80;;;;;;8368863;28;19917;-45
2022/10/21 06:05:35;;;;;;;;;;;20.40;53.70;;;;;;8368314;28;19928;-44
2022/10/21 06:09:36;;;;;;;;;;;20.40;53.90;;;;;;8367847;28;19928;-45
2022/10/21 06:13:37;;;;;;;;;;;20.40;54.00;;;;;;8368373;28;20007;-45
2022/10/21 06:17:37;;;;;;;;;;;20.40;54.00;;;;;;8368005;28;19920;-45
2022/10/21 06:21:38;;;;;;;;;;;20.40;54.80;;;;;;8367517;28;19950;-44
2022/10/21 06:25:38;;;;;;;;;;;20.40;54.10;;;;;;8368023;28;19928;-45
2022/10/21 06:29:39;;;;;;;;;;;20.40;54.00;;;;;;8367115;28;19964;-45
2022/10/21 06:33:39;;;;;;;;;;;20.40;54.50;;;;;;8367358;28;19913;-45
2022/10/21 06:37:39;;;;;;;;;;;20.40;54.00;;;;;;8367500;28;19971;-45
2022/10/21 06:41:40;;;;;;;;;;;20.40;54.40;;;;;;8367665;28;20391;-45
2022/10/21 06:45:40;;;;;;;;;;;20.40;54.40;;;;;;8366666;28;20374;-47
2022/10/21 06:49:41;;;;;;;;;;;20.30;54.20;;;;;;8367122;28;19921;-46
2022/10/21 06:53:42;;;;;;;;;;;20.40;53.80;;;;;;8367233;28;19955;-46
2022/10/21 06:57:42;;;;;;;;;;;20.30;53.80;;;;;;8366340;28;20357;-46
2022/10/21 07:01:43;;;;;;;;;;;20.40;54.00;;;;;;8366521;28;19916;-44
2022/10/21 07:05:43;;;;;;;;;;;20.40;53.90;;;;;;8365207;28;19928;-45
2022/10/21 07:09:44;;;;;;;;;;;20.30;54.00;;;;;;8365967;28;19927;-43
2022/10/21 07:13:44;;;;;;;;;;;20.30;53.80;;;;;;8366665;28;20368;-44
2022/10/21 07:17:44;;;;;;;;;;;20.40;54.10;;;;;;8366407;28;19978;-45
2022/10/21 07:21:45;;;;;;;;;;;20.40;54.00;;;;;;8365648;28;19924;-44
2022/10/21 07:25:45;;;;;;;;;;;20.30;53.90;;;;;;8366026;28;19924;-44
2022/10/21 07:29:46;;;;;;;;;;;20.40;54.00;;;;;;8366019;28;20008;-44
2022/10/21 07:33:47;;;;;;;;;;;20.40;54.50;;;;;;8365307;28;20293;-45
2022/10/21 07:37:47;;;;;;;;;;;20.40;54.00;;;;;;8365734;28;20004;-44
2022/10/21 07:41:49;;;;;;;;;;;20.40;54.20;;;;;;8364102;28;19928;-45
2022/10/21 07:45:49;;;;;;;;;;;20.40;54.10;;;;;;8365306;28;19970;-44
2022/10/21 07:49:50;;;;;;;;;;;20.40;54.30;;;;;;8365536;28;19924;-44
2022/10/21 07:53:52;;;;;;;;;;;20.40;54.40;;;;;;8364696;28;19917;-46
2022/10/21 07:57:52;;;;;;;;;;;20.40;54.50;;;;;;8364860;28;19923;-44
2022/10/21 08:01:52;;;;;;;;;;;20.40;55.20;;;;;;8364659;28;19916;-45
2022/10/21 08:05:53;;;;;;;;;;;20.30;54.70;;;;;;8363942;28;19967;-44
2022/10/21 08:09:54;;;;;;;;;;;20.40;54.60;;;;;;8364676;28;19920;-43
2022/10/21 08:13:55;;;;;;;;;;;20.40;54.30;;;;;;8364386;28;19917;-44
2022/10/21 08:17:55;;;;;;;;;;;20.30;54.10;;;;;;8363971;28;20488;-44
2022/10/21 08:21:57;;;;;;;;;;;20.30;54.00;;;;;;8364087;28;19928;-44
2022/10/21 08:25:59;;;;;;;;;;;20.30;53.90;;;;;;8363992;28;19924;-44
2022/10/21 08:30:00;;;;;;;;;;;20.40;54.00;;;;;;8363712;28;19951;-44
2022/10/21 08:34:00;;;;;;;;;;;20.40;54.00;;;;;;8364173;28;19917;-44
2022/10/21 08:38:00;;;;;;;;;;;20.30;53.90;;;;;;8363768;28;19924;-44
2022/10/21 08:42:04;;;;;;;;;;;20.40;54.00;;;;;;8363355;28;20007;-44
2022/10/21 08:46:12;;;;;;;;;;;20.40;54.00;;;;;;8363966;28;19917;-44
2022/10/21 08:50:15;;;;;;;;;;;20.40;54.00;;;;;;8363440;28;19921;-44
2022/10/21 08:54:30;;;;;;;;;;;20.30;53.90;;;;;;8363008;28;19917;-45
2022/10/21 08:58:30;;;;;;;;;;;20.30;53.90;;;;;;8363378;28;19928;-43
2022/10/21 09:02:49;;;;;;;;;;;20.40;54.00;;;;;;8363443;28;20014;-44
2022/10/21 09:07:02;;;;;;;;;;;20.40;54.30;;;;;;8362946;28;19982;-44
2022/10/21 09:11:08;;;;;;;;;;;20.40;54.30;;;;;;8363071;28;19925;-44
2022/10/21 09:15:09;;;;;;;;;;;20.40;54.40;;;;;;8362990;28;19966;-44
2022/10/21 09:19:29;;;;;;;;;;;20.40;54.20;;;;;;8363410;28;19917;-44
2022/10/21 09:23:30;;;;;;;;;;;20.40;54.50;;;;;;8363110;28;19924;-43
2022/10/21 09:27:30;;;;;;;;;;;20.40;54.30;;;;;;8362530;28;19917;-45
2022/10/21 09:31:31;;;;;;;;;;;20.40;54.80;;;;;;8362740;28;20301;-43
2022/10/21 09:35:50;;;;;;;;;;;20.40;54.90;;;;;;8363234;28;19913;-44
2022/10/21 09:39:56;;;;;;;;;;;20.40;54.70;;;;;;8362558;28;20396;-44
2022/10/21 09:43:57;;;;;;;;;;;20.40;54.80;;;;;;8362634;28;19916;-43
2022/10/21 09:47:59;;;;;;;;;;;20.40;54.50;;;;;;8362217;28;20370;-44
2022/10/21 09:52:01;;;;;;;;;;;20.40;54.40;;;;;;8362383;28;19939;-44
2022/10/21 09:56:05;;;;;;;;;;;20.40;54.50;;;;;;8362481;28;20050;-44
2022/10/21 10:00:06;;;;;;;;;;;20.30;54.30;;;;;;8362245;28;19913;-44
2022/10/21 10:04:09;;;;;;;;;;;20.40;54.30;;;;;;8366315;28;20302;-44
2022/10/21 10:08:30;;;;;;;;;;;20.40;54.30;;;;;;8367315;28;19913;-42
2022/10/21 10:12:30;;;;;;;;;;;20.40;54.30;;;;;;8370645;28;19971;-42
2022/10/21 10:16:31;;;;;;;;;;;20.40;54.20;;;;;;8368260;28;19913;-42
2022/10/21 10:20:32;;;;;;;;;;;20.40;54.10;;;;;;8368260;28;19940;-43
2022/10/21 10:24:32;;;;;;;;;;;20.40;54.00;;;;;;8367384;28;19921;-43
2022/10/21 10:28:33;;;;;;;;;;;20.40;54.10;;;;;;8367655;28;19957;-43
2022/10/21 10:32:34;;;;;;;;;;;20.40;54.10;;;;;;8367573;28;20277;-43
2022/10/21 10:36:38;;;;;;;;;;;20.40;54.00;;;;;;8367165;28;19917;-43
2022/10/21 10:40:41;;;;;;;;;;;20.40;54.20;;;;;;8368004;28;20393;-45
2022/10/21 10:44:42;;;;;;;;;;;20.40;54.30;;;;;;8367378;28;19999;-43
2022/10/21 10:48:44;;;;;;;;;;;20.50;54.10;;;;;;8366578;28;19921;-43
2022/10/21 10:52:45;;;;;;;;;;;20.50;54.30;;;;;;8367094;28;19913;-43
2022/10/21 10:56:51;;;;;;;;;;;20.50;54.50;;;;;;8366966;28;19924;-44
2022/10/21 11:00:54;;;;;;;;;;;20.50;54.50;;;;;;8366675;28;19916;-46
2022/10/21 11:05:17;;;;;;;;;;;20.50;54.30;;;;;;8366728;28;19925;-44
2022/10/21 11:09:18;;;;;;;;;;;20.50;54.40;;;;;;8355677;28;20011;-43
2022/10/21 11:13:20;;;;;;;;;;;20.50;54.60;;;;;;8366438;28;19982;-44
2022/10/21 11:17:28;;;;;;;;;;;20.50;54.60;;;;;;8366206;28;19944;-43
2022/10/21 11:21:45;;;;;;;;;;;20.50;54.60;;;;;;8365821;28;19970;-44
2022/10/21 11:26:03;;;;;;;;;;;20.50;54.60;;;;;;8366552;28;19923;-43
2022/10/21 11:30:18;;;;;;;;;;;20.50;54.30;;;;;;8365653;28;19946;-45
2022/10/21 11:34:24;;;;;;;;;;;20.50;54.40;;;;;;8366205;28;19917;-44
2022/10/21 11:38:40;;;;;;;;;;;20.50;54.50;;;;;;8365800;28;19913;-45
2022/10/21 11:42:42;;;;;;;;;;;20.50;55.00;;;;;;8365300;28;19916;-46
2022/10/21 11:46:46;;;;;;;;;;;20.60;54.50;;;;;;8365357;28;19944;-44
2022/10/21 11:51:01;;;;;;;;;;;20.50;54.20;;;;;;8365444;28;19924;-43
2022/10/21 11:55:20;;;;;;;;;;;20.50;54.10;;;;;;8365117;28;19936;-43
2022/10/21 11:59:37;;;;;;;;;;;20.60;54.10;;;;;;8365456;28;19940;-43
2022/10/21 12:03:56;;;;;;;;;;;20.60;54.00;;;;;;8364555;28;20327;-44
2022/10/21 12:08:02;;;;;;;;;;;20.60;54.00;;;;;;8365072;28;19920;-43
2022/10/21 12:12:05;;;;;;;;;;;20.60;54.00;;;;;;8364142;28;19924;-43
2022/10/21 12:16:08;;;;;;;;;;;20.60;54.00;;;;;;8396642;28;22162;-43
2022/10/21 12:20:15;;;;;;;;;;;20.60;54.20;;;;;;8364453;28;19920;-43
2022/10/21 12:24:23;;;;;;;;;;;20.60;54.10;;;;;;8363697;28;19952;-44
2022/10/21 12:28:37;;;;;;;;;;;20.60;54.10;;;;;;8363552;28;19917;-43
2022/10/21 12:32:47;;;;;;;;;;;20.60;54.00;;;;;;8363869;28;19921;-45
2022/10/21 12:36:49;;;;;;;;;;;20.60;54.00;;;;;;8364079;28;19974;-45
2022/10/21 12:41:10;;;;;;;;;;;20.70;54.20;;;;;;8363676;28;20428;-45
2022/10/21 12:45:24;;;;;;;;;;;20.70;54.10;;;;;;8362958;28;19917;-44
2022/10/21 12:49:31;;;;;;;;;;;20.70;53.90;;;;;;8363224;28;19939;-43
2022/10/21 12:53:31;;;;;;;;;;;20.70;54.10;;;;;;8363297;28;19917;-45
2022/10/21 12:57:33;;;;;;;;;;;20.70;54.10;;;;;;8362881;28;20285;-44
2022/10/21 13:01:39;;;;;;;;;;;20.70;53.90;;;;;;8363538;28;19919;-43
2022/10/21 13:05:39;;;;;;;;;;;20.70;54.00;;;;;;8363287;28;19947;-44
2022/10/21 13:09:53;;;;;;;;;;;20.70;54.10;;;;;;8357905;28;19952;-44
2022/10/21 13:14:12;;;;;;;;;;;20.70;53.90;;;;;;8351262;28;20350;-45
2022/10/21 13:18:32;;;;;;;;;;;20.70;53.90;;;;;;8360897;28;19960;-45
2022/10/21 13:22:34;;;;;;;;;;;20.70;54.00;;;;;;8350198;28;20617;-44
2022/10/21 13:26:38;;;;;;;;;;;20.70;54.10;;;;;;8357354;28;19956;-45
2022/10/21 13:30:55;;;;;;;;;;;20.70;54.00;;;;;;8359577;28;19924;-44
2022/10/21 13:34:55;;;;;;;;;;;20.70;54.00;;;;;;8362043;28;19917;-44
2022/10/21 13:39:01;;;;;;;;;;;20.70;54.00;;;;;;8369219;28;19928;-44
2022/10/21 13:43:04;;;;;;;;;;;20.70;53.90;;;;;;8371186;28;19962;-44
2022/10/21 13:47:23;;;;;;;;;;;20.70;53.80;;;;;;8356765;28;20313;-43
2022/10/21 13:51:25;;;;;;;;;;;20.70;54.00;;;;;;8344348;28;20010;-43
2022/10/21 13:55:25;;;;;;;;;;;20.70;53.90;;;;;;8361687;28;19917;-44
2022/10/21 13:59:28;;;;;;;;;;;20.70;54.00;;;;;;8353392;28;20011;-43
2022/10/21 14:03:29;;;;;;;;;;;20.70;53.80;;;;;;8351185;28;19921;-43
2022/10/21 14:07:29;;;;;;;;;;;20.70;54.00;;;;;;8356856;28;19966;-44
2022/10/21 14:11:32;;;;;;;;;;;20.70;53.90;;;;;;8367554;28;19935;-44
2022/10/21 14:15:38;;;;;;;;;;;20.70;54.00;;;;;;8362551;28;19924;-42
2022/10/21 14:19:38;;;;;;;;;;;20.70;54.10;;;;;;8366200;28;19924;-44
2022/10/21 14:23:40;;;;;;;;;;;20.70;54.00;;;;;;8368099;28;20360;-43
2022/10/21 14:27:45;;;;;;;;;;;20.70;54.00;;;;;;8373982;28;20003;-43
2022/10/21 14:31:46;;;;;;;;;;;20.70;54.00;;;;;;8372734;28;20405;-44
2022/10/21 14:36:02;;;;;;;;;;;20.70;54.10;;;;;;8346859;28;19948;-43
2022/10/21 14:40:30;;;;;;;;;;;20.70;54.10;;;;;;8363588;28;20009;-43
2022/10/21 14:44:31;;;;;;;;;;;20.70;54.10;;;;;;8345834;28;19927;-43
2022/10/21 14:49:03;;;;;;;;;;;20.70;54.00;;;;;;8368749;28;19916;-45
2022/10/21 14:53:13;;;;;;;;;;;20.70;54.00;;;;;;8349771;28;19920;-44
2022/10/21 14:57:32;;;;;;;;;;;20.70;54.10;;;;;;8338053;28;19925;-43
2022/10/21 15:01:32;;;;;;;;;;;20.70;54.00;;;;;;8364224;28;19923;-43
2022/10/21 15:05:33;;;;;;;;;;;20.70;54.20;;;;;;8353647;28;20634;-44
2022/10/21 15:09:33;;;;;;;;;;;20.70;54.20;;;;;;8361414;28;19972;-44
2022/10/21 15:13:34;;;;;;;;;;;20.70;54.40;;;;;;8349170;28;20266;-44
2022/10/21 15:17:34;;;;;;;;;;;20.70;54.20;;;;;;8363110;28;19951;-44
2022/10/21 15:21:38;;;;;;;;;;;20.70;54.20;;;;;;8356006;28;20435;-43
2022/10/21 15:25:39;;;;;;;;;;;20.70;54.30;;;;;;8364240;28;19917;-44
2022/10/21 15:29:44;;;;;;;;;;;20.70;54.10;;;;;;8357382;28;19928;-44
2022/10/21 15:33:44;;;;;;;;;;;20.70;54.10;;;;;;8350855;28;19979;-44
2022/10/21 15:37:51;;;;;;;;;;;20.70;54.10;;;;;;8359782;28;20394;-46
2022/10/21 15:41:53;;;;;;;;;;;20.70;54.00;;;;;;8357728;28;19932;-44
2022/10/21 15:45:54;;;;;;;;;;;20.70;54.00;;;;;;8362446;28;20281;-43
2022/10/21 15:49:55;;;;;;;;;;;20.70;54.00;;;;;;8365794;28;19925;-43
2022/10/21 15:53:55;;;;;;;;;;;20.70;54.00;;;;;;8368426;28;20351;-44
2022/10/21 15:57:55;;;;;;;;;;;20.70;54.10;;;;;;8365410;28;19923;-45
2022/10/21 16:01:57;;;;;;;;;;;20.70;54.10;;;;;;8361429;28;19921;-44
2022/10/21 16:05:57;;;;;;;;;;;20.70;54.10;;;;;;8361510;28;19929;-44
2022/10/21 16:09:58;;;;;;;;;;;20.70;54.10;;;;;;8357840;28;20038;-43
2022/10/21 16:13:58;;;;;;;;;;;20.70;54.10;;;;;;8354544;28;19931;-45
2022/10/21 16:17:59;;;;;;;;;;;20.70;54.00;;;;;;8358024;28;20035;-45
2022/10/21 16:21:59;;;;;;;;;;;20.70;54.10;;;;;;8362252;28;19920;-45
2022/10/21 16:25:59;;;;;;;;;;;20.70;54.00;;;;;;8363992;28;20386;-44
2022/10/21 16:30:00;;;;;;;;;;;20.70;54.10;;;;;;8363697;28;19924;-44
2022/10/21 16:34:00;;;;;;;;;;;20.70;54.00;;;;;;8364077;28;20370;-43
2022/10/21 16:38:01;;;;;;;;;;;20.70;54.10;;;;;;8364202;28;19949;-47
2022/10/21 16:42:01;;;;;;;;;;;20.70;54.10;;;;;;8363331;28;19921;-43
2022/10/21 16:46:02;;;;;;;;;;;20.70;54.20;;;;;;8363750;28;19987;-43
2022/10/21 16:50:03;;;;;;;;;;;20.70;54.20;;;;;;8363708;28;19924;-44
2022/10/21 16:54:04;;;;;;;;;;;20.70;54.10;;;;;;8362994;28;20382;-43
2022/10/21 16:58:04;;;;;;;;;;;20.70;54.20;;;;;;8364042;28;20281;-44
2022/10/21 17:02:12;;;;;;;;;;;20.70;54.40;;;;;;8363670;28;19999;-44
2022/10/21 17:06:14;;;;;;;;;;;20.70;54.40;;;;;;8364301;28;19979;-43
2022/10/21 17:10:15;;;;;;;;;;;20.70;54.40;;;;;;8363441;28;19925;-44
2022/10/21 17:14:17;;;;;;;;;;;20.70;54.40;;;;;;8373323;28;19917;-44
2022/10/21 17:18:17;;;;;;;;;;;20.70;54.30;;;;;;8374047;28;20405;-44
2022/10/21 17:22:18;;;;;;;;;;;20.70;54.20;;;;;;8374316;28;19917;-45
2022/10/21 17:26:19;;;;;;;;;;;20.60;54.20;;;;;;8374137;28;19917;-46
2022/10/21 17:30:19;;;;;;;;;;;20.70;54.20;;;;;;8373365;28;19932;-46
2022/10/21 17:34:30;;;;;;;;;;;20.60;54.20;;;;;;8373803;28;20332;-45
2022/10/21 17:38:30;;;;;;;;;;;20.60;54.30;;;;;;8374097;28;19917;-44
2022/10/21 17:42:31;;;;;;;;;;;20.70;54.20;;;;;;8373416;28;19939;-44
2022/10/21 17:46:31;;;;;;;;;;;20.70;54.20;;;;;;8373957;28;19917;-44
2022/10/21 17:50:32;;;;;;;;;;;20.70;54.20;;;;;;8373501;28;19925;-45
2022/10/21 17:54:32;;;;;;;;;;;20.60;54.20;;;;;;8373200;28;19943;-45
2022/10/21 17:58:33;;;;;;;;;;;20.60;54.30;;;;;;8373748;28;19913;-44
2022/10/21 18:02:34;;;;;;;;;;;20.70;54.30;;;;;;8373507;28;19924;-44
2022/10/21 18:06:35;;;;;;;;;;;20.70;54.20;;;;;;8372924;28;20018;-44
2022/10/21 18:10:36;;;;;;;;;;;20.70;54.30;;;;;;8373520;28;19931;-46
2022/10/21 18:14:36;;;;;;;;;;;20.70;54.30;;;;;;8373374;28;20286;-43
2022/10/21 18:18:37;;;;;;;;;;;20.70;54.30;;;;;;8373092;28;19974;-44
2022/10/21 18:22:38;;;;;;;;;;;20.70;54.30;;;;;;8372046;28;19924;-45
2022/10/21 18:26:38;;;;;;;;;;;20.70;54.30;;;;;;8368037;28;19962;-44
2022/10/21 18:30:40;;;;;;;;;;;20.70;54.40;;;;;;8367361;28;19925;-43
2022/10/21 18:34:41;;;;;;;;;;;20.70;54.40;;;;;;8367687;28;19928;-44
2022/10/21 18:38:41;;;;;;;;;;;20.60;54.40;;;;;;8367774;28;19913;-44
2022/10/21 18:42:42;;;;;;;;;;;20.70;54.30;;;;;;8367054;28;19917;-46
2022/10/21 18:46:45;;;;;;;;;;;20.70;54.40;;;;;;8367254;28;19917;-45
2022/10/21 18:50:45;;;;;;;;;;;20.70;54.30;;;;;;8365908;28;19929;-44
2022/10/21 18:54:46;;;;;;;;;;;20.70;54.30;;;;;;8366654;28;20012;-46
2022/10/21 18:58:47;;;;;;;;;;;20.70;54.30;;;;;;8367214;28;19919;-45
2022/10/21 19:02:47;;;;;;;;;;;20.70;54.30;;;;;;8366271;28;20285;-46
2022/10/21 19:06:48;;;;;;;;;;;20.70;54.30;;;;;;8366399;28;19924;-45
2022/10/21 19:10:48;;;;;;;;;;;20.70;54.20;;;;;;8366705;28;19968;-44
2022/10/21 19:14:48;;;;;;;;;;;20.70;54.30;;;;;;8366075;28;19956;-44
2022/10/21 19:18:49;;;;;;;;;;;20.70;54.20;;;;;;8365314;28;19917;-45
2022/10/21 19:22:49;;;;;;;;;;;20.70;54.30;;;;;;8366233;28;19921;-45
2022/10/21 19:26:52;;;;;;;;;;;20.70;54.30;;;;;;8365677;28;19921;-46
2022/10/21 19:30:52;;;;;;;;;;;20.70;54.30;;;;;;8365732;28;19925;-45
2022/10/21 19:34:53;;;;;;;;;;;20.70;54.30;;;;;;8364585;28;19967;-45
2022/10/21 19:38:53;;;;;;;;;;;20.70;54.30;;;;;;8365444;28;20328;-45
2022/10/21 19:42:53;;;;;;;;;;;20.70;54.30;;;;;;8365538;28;19952;-45
2022/10/21 19:46:54;;;;;;;;;;;20.70;54.30;;;;;;8365544;28;19923;-43
2022/10/21 19:50:56;;;;;;;;;;;20.70;54.20;;;;;;8364642;28;19925;-46
2022/10/21 19:54:57;;;;;;;;;;;20.70;54.20;;;;;;8365172;28;19995;-44
2022/10/21 19:58:58;;;;;;;;;;;20.70;54.30;;;;;;8365266;28;19912;-44
2022/10/21 20:02:58;;;;;;;;;;;20.70;54.30;;;;;;8364459;28;20378;-45
2022/10/21 20:06:59;;;;;;;;;;;20.70;54.20;;;;;;8365054;28;19924;-46
2022/10/21 20:11:00;;;;;;;;;;;20.70;54.20;;;;;;8364760;28;19932;-44
2022/10/21 20:15:00;;;;;;;;;;;20.70;54.20;;;;;;8364085;28;19917;-45
2022/10/21 20:19:02;;;;;;;;;;;20.70;54.20;;;;;;8365008;28;20289;-44
2022/10/21 20:23:03;;;;;;;;;;;20.70;54.20;;;;;;8364367;28;19952;-44
2022/10/21 20:27:03;;;;;;;;;;;20.70;54.20;;;;;;8363775;28;20289;-44
2022/10/21 20:31:05;;;;;;;;;;;20.70;54.20;;;;;;8364285;28;19925;-44
2022/10/21 20:35:06;;;;;;;;;;;20.70;54.30;;;;;;8364101;28;19971;-44
2022/10/21 20:39:06;;;;;;;;;;;20.70;54.20;;;;;;8363652;28;19913;-44
2022/10/21 20:43:07;;;;;;;;;;;20.70;54.30;;;;;;8363840;28;20340;-45
2022/10/21 20:47:07;;;;;;;;;;;20.70;54.30;;;;;;8363420;28;19924;-45
2022/10/21 20:51:10;;;;;;;;;;;20.70;54.40;;;;;;8363061;28;19960;-45
2022/10/21 20:55:10;;;;;;;;;;;20.70;54.40;;;;;;8363719;28;19921;-46
2022/10/21 20:59:13;;;;;;;;;;;20.70;54.40;;;;;;8363403;28;20017;-45
2022/10/21 21:03:14;;;;;;;;;;;20.70;54.40;;;;;;8362821;28;20274;-44
2022/10/21 21:07:14;;;;;;;;;;;20.70;54.40;;;;;;8363332;28;19917;-45
2022/10/21 21:11:15;;;;;;;;;;;20.70;54.40;;;;;;8363075;28;20361;-45
2022/10/21 21:15:16;;;;;;;;;;;20.70;54.40;;;;;;8363048;28;19916;-44
2022/10/21 21:19:18;;;;;;;;;;;20.70;54.50;;;;;;8363185;28;19917;-45
2022/10/21 21:23:18;;;;;;;;;;;20.70;54.40;;;;;;8363186;28;20015;-45
2022/10/21 21:27:19;;;;;;;;;;;20.70;54.50;;;;;;8362623;28;19917;-45
2022/10/21 21:31:20;;;;;;;;;;;20.70;54.50;;;;;;8362998;28;20011;-46
2022/10/21 21:35:21;;;;;;;;;;;20.70;54.50;;;;;;8363085;28;20321;-46
2022/10/21 21:39:21;;;;;;;;;;;20.70;54.60;;;;;;8362266;28;19917;-45
2022/10/21 21:43:22;;;;;;;;;;;20.70;54.50;;;;;;8362948;28;19917;-45
2022/10/21 21:47:22;;;;;;;;;;;20.70;54.60;;;;;;8362933;28;19917;-45
2022/10/21 21:51:24;;;;;;;;;;;20.70;54.50;;;;;;8362137;28;19932;-45
2022/10/21 21:55:24;;;;;;;;;;;20.70;54.50;;;;;;8362971;28;19916;-45
2022/10/21 21:59:25;;;;;;;;;;;20.70;54.50;;;;;;8365281;28;19983;-46
2022/10/21 22:03:25;;;;;;;;;;;20.70;54.50;;;;;;8353024;28;19948;-45
2022/10/21 22:07:26;;;;;;;;;;;20.70;54.50;;;;;;8350098;28;20441;-45
2022/10/21 22:11:28;;;;;;;;;;;20.70;54.60;;;;;;8368391;28;19928;-43
2022/10/21 22:15:29;;;;;;;;;;;20.70;54.60;;;;;;8368240;28;19917;-44
2022/10/21 22:19:29;;;;;;;;;;;20.70;54.70;;;;;;8368581;28;19921;-44
2022/10/21 22:23:30;;;;;;;;;;;20.70;54.60;;;;;;8368231;28;19928;-44
2022/10/21 22:27:30;;;;;;;;;;;20.70;54.60;;;;;;8367692;28;19974;-45
2022/10/21 22:31:31;;;;;;;;;;;20.70;54.90;;;;;;8367731;28;19958;-44
2022/10/21 22:35:31;;;;;;;;;;;20.70;54.80;;;;;;8368110;28;19916;-44
2022/10/21 22:39:31;;;;;;;;;;;20.70;54.60;;;;;;8367231;28;20381;-43
2022/10/21 22:43:32;;;;;;;;;;;20.70;55.00;;;;;;8367765;28;19924;-43
2022/10/21 22:47:32;;;;;;;;;;;20.60;54.90;;;;;;8367422;28;19912;-43
2022/10/21 22:51:33;;;;;;;;;;;20.70;55.10;;;;;;8366667;28;19971;-43
2022/10/21 22:55:33;;;;;;;;;;;20.60;54.90;;;;;;8367284;28;20328;-42
2022/10/21 22:59:35;;;;;;;;;;;20.70;55.20;;;;;;8366958;28;20347;-44
2022/10/21 23:03:36;;;;;;;;;;;20.60;55.30;;;;;;8366244;28;19928;-43
2022/10/21 23:07:36;;;;;;;;;;;20.60;55.00;;;;;;8366781;28;19952;-44
2022/10/21 23:11:37;;;;;;;;;;;20.70;55.00;;;;;;8366243;28;20312;-44
2022/10/21 23:15:37;;;;;;;;;;;20.60;55.30;;;;;;8366423;28;19913;-44
2022/10/21 23:19:38;;;;;;;;;;;20.60;55.40;;;;;;8366410;28;19999;-44
2022/10/21 23:23:38;;;;;;;;;;;20.60;55.20;;;;;;8366365;28;20365;-44
2022/10/21 23:27:39;;;;;;;;;;;20.60;55.30;;;;;;8365825;28;20382;-44
2022/10/21 23:31:39;;;;;;;;;;;20.60;55.30;;;;;;8366021;28;19998;-44